sensor_id;sensor_type;location;lat;lon;timestamp;P1;durP1;ratioP1;P2;durP2;ratioP2
7410;SDS011;3747;48.628;9.058;2022-08-01T00:01:23;1.90;;;1.80;;
7410;SDS011;3747;48.628;9.058;2022-08-01T00:03:50;2.77;;;2.00;;
7410;SDS011;3747;48.628;9.058;2022-08-01T00:06:17;2.97;;;2.17;;
7410;SDS011;3747;48.628;9.058;2022-08-01T00:08:44;2.13;;;1.93;;
7410;SDS011;3747;48.628;9.058;2022-08-01T00:11:12;2.03;;;1.70;;
7410;SDS011;3747;48.628;9.058;2022-08-01T00:13:39;1.93;;;1.83;;
7410;SDS011;3747;48.628;9.058;2022-08-01T00:16:06;1.60;;;1.50;;
7410;SDS011;3747;48.628;9.058;2022-08-01T00:18:33;2.60;;;2.03;;
7410;SDS011;3747;48.628;9.058;2022-08-01T00:21:00;2.50;;;2.17;;
7410;SDS011;3747;48.628;9.058;2022-08-01T00:23:27;2.17;;;1.97;;
7410;SDS011;3747;48.628;9.058;2022-08-01T00:25:53;2.70;;;2.13;;
7410;SDS011;3747;48.628;9.058;2022-08-01T00:28:22;2.77;;;1.70;;
7410;SDS011;3747;48.628;9.058;2022-08-01T00:30:48;3.27;;;2.20;;
7410;SDS011;3747;48.628;9.058;2022-08-01T00:33:15;2.20;;;2.10;;
7410;SDS011;3747;48.628;9.058;2022-08-01T00:35:42;2.60;;;2.00;;
7410;SDS011;3747;48.628;9.058;2022-08-01T00:38:08;2.47;;;2.20;;
7410;SDS011;3747;48.628;9.058;2022-08-01T00:40:36;1.97;;;1.87;;
7410;SDS011;3747;48.628;9.058;2022-08-01T00:43:02;2.53;;;2.13;;
7410;SDS011;3747;48.628;9.058;2022-08-01T00:45:30;2.30;;;2.10;;
7410;SDS011;3747;48.628;9.058;2022-08-01T00:47:57;3.27;;;2.13;;
7410;SDS011;3747;48.628;9.058;2022-08-01T00:50:24;3.27;;;2.30;;
7410;SDS011;3747;48.628;9.058;2022-08-01T00:52:51;3.30;;;2.50;;
7410;SDS011;3747;48.628;9.058;2022-08-01T00:55:18;1.70;;;1.60;;
7410;SDS011;3747;48.628;9.058;2022-08-01T00:57:45;2.70;;;2.03;;
7410;SDS011;3747;48.628;9.058;2022-08-01T01:00:12;2.20;;;2.00;;
7410;SDS011;3747;48.628;9.058;2022-08-01T01:02:41;2.20;;;2.10;;
7410;SDS011;3747;48.628;9.058;2022-08-01T01:05:08;3.30;;;1.77;;
7410;SDS011;3747;48.628;9.058;2022-08-01T01:07:38;2.40;;;2.20;;
7410;SDS011;3747;48.628;9.058;2022-08-01T01:10:12;2.17;;;1.97;;
7410;SDS011;3747;48.628;9.058;2022-08-01T01:12:42;2.37;;;2.17;;
7410;SDS011;3747;48.628;9.058;2022-08-01T01:15:15;2.27;;;2.00;;
7410;SDS011;3747;48.628;9.058;2022-08-01T01:17:48;2.53;;;2.33;;
7410;SDS011;3747;48.628;9.058;2022-08-01T01:20:20;2.30;;;2.00;;
7410;SDS011;3747;48.628;9.058;2022-08-01T01:23:05;3.30;;;2.10;;
7410;SDS011;3747;48.628;9.058;2022-08-01T01:25:54;2.07;;;1.83;;
7410;SDS011;3747;48.628;9.058;2022-08-01T01:31:18;4.77;;;2.20;;
7410;SDS011;3747;48.628;9.058;2022-08-01T01:33:47;3.10;;;2.80;;
7410;SDS011;3747;48.628;9.058;2022-08-01T01:36:15;2.40;;;2.20;;
7410;SDS011;3747;48.628;9.058;2022-08-01T01:38:45;2.60;;;2.40;;
7410;SDS011;3747;48.628;9.058;2022-08-01T01:41:14;4.53;;;2.40;;
7410;SDS011;3747;48.628;9.058;2022-08-01T01:43:43;2.40;;;2.13;;
7410;SDS011;3747;48.628;9.058;2022-08-01T01:46:15;4.30;;;2.80;;
7410;SDS011;3747;48.628;9.058;2022-08-01T01:48:47;2.10;;;2.00;;
7410;SDS011;3747;48.628;9.058;2022-08-01T01:51:14;2.80;;;2.43;;
7410;SDS011;3747;48.628;9.058;2022-08-01T01:53:42;2.83;;;2.30;;
7410;SDS011;3747;48.628;9.058;2022-08-01T01:56:11;2.90;;;2.67;;
7410;SDS011;3747;48.628;9.058;2022-08-01T01:58:40;2.70;;;2.50;;
7410;SDS011;3747;48.628;9.058;2022-08-01T02:01:09;2.43;;;2.20;;
7410;SDS011;3747;48.628;9.058;2022-08-01T02:03:39;2.57;;;2.37;;
7410;SDS011;3747;48.628;9.058;2022-08-01T02:06:07;2.60;;;2.40;;
7410;SDS011;3747;48.628;9.058;2022-08-01T02:08:34;3.10;;;2.50;;
7410;SDS011;3747;48.628;9.058;2022-08-01T02:11:03;2.57;;;2.37;;
7410;SDS011;3747;48.628;9.058;2022-08-01T02:13:48;3.93;;;2.80;;
7410;SDS011;3747;48.628;9.058;2022-08-01T02:16:19;2.77;;;2.57;;
7410;SDS011;3747;48.628;9.058;2022-08-01T02:18:50;2.87;;;2.53;;
7410;SDS011;3747;48.628;9.058;2022-08-01T02:21:18;2.47;;;2.37;;
7410;SDS011;3747;48.628;9.058;2022-08-01T02:23:55;3.20;;;2.50;;
7410;SDS011;3747;48.628;9.058;2022-08-01T02:26:26;2.70;;;2.30;;
7410;SDS011;3747;48.628;9.058;2022-08-01T02:28:55;2.37;;;2.27;;
7410;SDS011;3747;48.628;9.058;2022-08-01T02:31:24;3.00;;;2.60;;
7410;SDS011;3747;48.628;9.058;2022-08-01T02:33:55;2.13;;;2.03;;
7410;SDS011;3747;48.628;9.058;2022-08-01T02:36:28;2.53;;;2.33;;
7410;SDS011;3747;48.628;9.058;2022-08-01T02:38:56;2.97;;;2.67;;
7410;SDS011;3747;48.628;9.058;2022-08-01T02:41:24;3.87;;;2.50;;
7410;SDS011;3747;48.628;9.058;2022-08-01T02:43:53;3.20;;;2.30;;
7410;SDS011;3747;48.628;9.058;2022-08-01T02:46:26;2.70;;;2.50;;
7410;SDS011;3747;48.628;9.058;2022-08-01T02:48:58;4.77;;;2.93;;
7410;SDS011;3747;48.628;9.058;2022-08-01T02:51:26;2.77;;;2.57;;
7410;SDS011;3747;48.628;9.058;2022-08-01T02:53:55;2.90;;;2.60;;
7410;SDS011;3747;48.628;9.058;2022-08-01T02:56:24;2.97;;;2.70;;
7410;SDS011;3747;48.628;9.058;2022-08-01T02:58:59;2.90;;;2.70;;
7410;SDS011;3747;48.628;9.058;2022-08-01T03:01:27;3.10;;;2.80;;
7410;SDS011;3747;48.628;9.058;2022-08-01T03:03:55;4.17;;;2.90;;
7410;SDS011;3747;48.628;9.058;2022-08-01T03:06:24;2.80;;;2.60;;
7410;SDS011;3747;48.628;9.058;2022-08-01T03:08:51;2.77;;;2.57;;
7410;SDS011;3747;48.628;9.058;2022-08-01T03:11:19;2.57;;;2.37;;
7410;SDS011;3747;48.628;9.058;2022-08-01T03:13:49;2.80;;;2.60;;
7410;SDS011;3747;48.628;9.058;2022-08-01T03:16:17;2.80;;;2.60;;
7410;SDS011;3747;48.628;9.058;2022-08-01T03:18:46;3.77;;;2.70;;
7410;SDS011;3747;48.628;9.058;2022-08-01T03:21:14;2.77;;;2.57;;
7410;SDS011;3747;48.628;9.058;2022-08-01T03:23:44;2.70;;;2.43;;
7410;SDS011;3747;48.628;9.058;2022-08-01T03:26:12;2.93;;;2.73;;
7410;SDS011;3747;48.628;9.058;2022-08-01T03:28:40;2.53;;;2.33;;
7410;SDS011;3747;48.628;9.058;2022-08-01T03:31:10;3.63;;;2.60;;
7410;SDS011;3747;48.628;9.058;2022-08-01T03:33:39;2.67;;;2.40;;
7410;SDS011;3747;48.628;9.058;2022-08-01T03:36:07;2.83;;;2.53;;
7410;SDS011;3747;48.628;9.058;2022-08-01T03:38:37;2.63;;;2.43;;
7410;SDS011;3747;48.628;9.058;2022-08-01T03:41:09;3.30;;;3.00;;
7410;SDS011;3747;48.628;9.058;2022-08-01T03:43:40;2.70;;;2.50;;
7410;SDS011;3747;48.628;9.058;2022-08-01T03:46:13;3.10;;;2.87;;
7410;SDS011;3747;48.628;9.058;2022-08-01T03:48:46;2.97;;;2.67;;
7410;SDS011;3747;48.628;9.058;2022-08-01T03:51:16;2.77;;;2.57;;
7410;SDS011;3747;48.628;9.058;2022-08-01T03:53:44;2.57;;;2.37;;
7410;SDS011;3747;48.628;9.058;2022-08-01T03:56:16;3.17;;;2.70;;
7410;SDS011;3747;48.628;9.058;2022-08-01T03:58:45;3.17;;;2.70;;
7410;SDS011;3747;48.628;9.058;2022-08-01T04:01:12;2.73;;;2.53;;
7410;SDS011;3747;48.628;9.058;2022-08-01T04:03:40;2.80;;;2.60;;
7410;SDS011;3747;48.628;9.058;2022-08-01T04:06:07;2.50;;;2.33;;
7410;SDS011;3747;48.628;9.058;2022-08-01T04:08:35;4.03;;;2.97;;
7410;SDS011;3747;48.628;9.058;2022-08-01T04:11:02;4.33;;;3.93;;
7410;SDS011;3747;48.628;9.058;2022-08-01T04:13:31;3.73;;;3.40;;
7410;SDS011;3747;48.628;9.058;2022-08-01T04:15:58;2.60;;;2.40;;
7410;SDS011;3747;48.628;9.058;2022-08-01T04:18:25;3.60;;;2.60;;
7410;SDS011;3747;48.628;9.058;2022-08-01T04:20:52;2.97;;;2.77;;
7410;SDS011;3747;48.628;9.058;2022-08-01T04:23:19;2.90;;;2.70;;
7410;SDS011;3747;48.628;9.058;2022-08-01T04:25:49;2.80;;;2.60;;
7410;SDS011;3747;48.628;9.058;2022-08-01T04:28:16;3.50;;;3.20;;
7410;SDS011;3747;48.628;9.058;2022-08-01T04:30:46;2.93;;;2.50;;
7410;SDS011;3747;48.628;9.058;2022-08-01T04:33:16;3.13;;;2.93;;
7410;SDS011;3747;48.628;9.058;2022-08-01T04:35:45;3.10;;;2.80;;
7410;SDS011;3747;48.628;9.058;2022-08-01T04:38:13;4.00;;;2.40;;
7410;SDS011;3747;48.628;9.058;2022-08-01T04:40:45;2.87;;;2.67;;
7410;SDS011;3747;48.628;9.058;2022-08-01T04:43:15;2.83;;;2.50;;
7410;SDS011;3747;48.628;9.058;2022-08-01T04:45:46;2.93;;;2.73;;
7410;SDS011;3747;48.628;9.058;2022-08-01T04:48:15;2.67;;;2.47;;
7410;SDS011;3747;48.628;9.058;2022-08-01T04:50:44;2.97;;;2.67;;
7410;SDS011;3747;48.628;9.058;2022-08-01T04:53:14;2.83;;;2.63;;
7410;SDS011;3747;48.628;9.058;2022-08-01T04:55:42;2.67;;;2.47;;
7410;SDS011;3747;48.628;9.058;2022-08-01T04:58:09;3.00;;;2.33;;
7410;SDS011;3747;48.628;9.058;2022-08-01T05:00:36;3.40;;;2.63;;
7410;SDS011;3747;48.628;9.058;2022-08-01T05:03:05;2.97;;;2.50;;
7410;SDS011;3747;48.628;9.058;2022-08-01T05:05:31;3.23;;;2.20;;
7410;SDS011;3747;48.628;9.058;2022-08-01T05:07:58;2.83;;;2.13;;
7410;SDS011;3747;48.628;9.058;2022-08-01T05:10:25;4.10;;;2.40;;
7410;SDS011;3747;48.628;9.058;2022-08-01T05:12:52;1.90;;;1.80;;
7410;SDS011;3747;48.628;9.058;2022-08-01T05:15:19;2.57;;;1.60;;
7410;SDS011;3747;48.628;9.058;2022-08-01T05:17:46;1.50;;;1.40;;
7410;SDS011;3747;48.628;9.058;2022-08-01T05:20:14;2.83;;;1.60;;
7410;SDS011;3747;48.628;9.058;2022-08-01T05:22:41;4.03;;;2.00;;
7410;SDS011;3747;48.628;9.058;2022-08-01T05:25:08;2.03;;;1.90;;
7410;SDS011;3747;48.628;9.058;2022-08-01T05:27:34;1.77;;;1.67;;
7410;SDS011;3747;48.628;9.058;2022-08-01T05:30:04;4.47;;;1.67;;
7410;SDS011;3747;48.628;9.058;2022-08-01T05:32:32;2.97;;;1.97;;
7410;SDS011;3747;48.628;9.058;2022-08-01T05:34:59;3.03;;;1.67;;
7410;SDS011;3747;48.628;9.058;2022-08-01T05:37:27;2.40;;;2.00;;
7410;SDS011;3747;48.628;9.058;2022-08-01T05:39:54;3.40;;;2.07;;
7410;SDS011;3747;48.628;9.058;2022-08-01T05:42:20;1.90;;;1.70;;
7410;SDS011;3747;48.628;9.058;2022-08-01T05:44:47;2.17;;;1.77;;
7410;SDS011;3747;48.628;9.058;2022-08-01T05:47:15;1.77;;;1.67;;
7410;SDS011;3747;48.628;9.058;2022-08-01T05:49:42;1.60;;;1.50;;
7410;SDS011;3747;48.628;9.058;2022-08-01T05:52:09;1.60;;;1.50;;
7410;SDS011;3747;48.628;9.058;2022-08-01T05:54:37;2.90;;;1.67;;
7410;SDS011;3747;48.628;9.058;2022-08-01T05:57:04;1.77;;;1.67;;
7410;SDS011;3747;48.628;9.058;2022-08-01T05:59:30;2.93;;;1.50;;
7410;SDS011;3747;48.628;9.058;2022-08-01T06:01:57;2.00;;;1.33;;
7410;SDS011;3747;48.628;9.058;2022-08-01T06:04:24;1.63;;;1.53;;
7410;SDS011;3747;48.628;9.058;2022-08-01T06:06:51;3.50;;;1.73;;
7410;SDS011;3747;48.628;9.058;2022-08-01T06:09:18;1.60;;;1.50;;
7410;SDS011;3747;48.628;9.058;2022-08-01T06:11:45;2.93;;;1.30;;
7410;SDS011;3747;48.628;9.058;2022-08-01T06:14:12;2.37;;;1.67;;
7410;SDS011;3747;48.628;9.058;2022-08-01T06:16:39;2.27;;;1.60;;
7410;SDS011;3747;48.628;9.058;2022-08-01T06:19:05;1.60;;;1.47;;
7410;SDS011;3747;48.628;9.058;2022-08-01T06:21:32;2.40;;;1.60;;
7410;SDS011;3747;48.628;9.058;2022-08-01T06:23:59;1.80;;;1.70;;
7410;SDS011;3747;48.628;9.058;2022-08-01T06:26:25;4.83;;;2.30;;
7410;SDS011;3747;48.628;9.058;2022-08-01T06:28:53;4.43;;;2.33;;
7410;SDS011;3747;48.628;9.058;2022-08-01T06:31:20;2.30;;;2.10;;
7410;SDS011;3747;48.628;9.058;2022-08-01T06:33:47;2.00;;;1.80;;
7410;SDS011;3747;48.628;9.058;2022-08-01T06:36:13;2.40;;;2.20;;
7410;SDS011;3747;48.628;9.058;2022-08-01T06:38:40;2.40;;;2.20;;
7410;SDS011;3747;48.628;9.058;2022-08-01T06:41:07;2.60;;;2.37;;
7410;SDS011;3747;48.628;9.058;2022-08-01T06:43:33;2.80;;;2.60;;
7410;SDS011;3747;48.628;9.058;2022-08-01T06:46:01;3.10;;;2.80;;
7410;SDS011;3747;48.628;9.058;2022-08-01T06:48:28;2.63;;;2.40;;
7410;SDS011;3747;48.628;9.058;2022-08-01T06:50:55;3.20;;;2.40;;
7410;SDS011;3747;48.628;9.058;2022-08-01T06:53:33;2.93;;;2.73;;
7410;SDS011;3747;48.628;9.058;2022-08-01T06:56:00;2.23;;;2.10;;
7410;SDS011;3747;48.628;9.058;2022-08-01T06:58:27;3.17;;;2.37;;
7410;SDS011;3747;48.628;9.058;2022-08-01T07:00:54;2.63;;;2.37;;
7410;SDS011;3747;48.628;9.058;2022-08-01T07:03:22;5.13;;;2.07;;
7410;SDS011;3747;48.628;9.058;2022-08-01T07:05:48;2.57;;;2.20;;
7410;SDS011;3747;48.628;9.058;2022-08-01T07:08:15;2.07;;;1.90;;
7410;SDS011;3747;48.628;9.058;2022-08-01T07:10:41;1.63;;;1.53;;
7410;SDS011;3747;48.628;9.058;2022-08-01T07:13:09;2.17;;;1.50;;
7410;SDS011;3747;48.628;9.058;2022-08-01T07:15:37;2.03;;;1.47;;
7410;SDS011;3747;48.628;9.058;2022-08-01T07:18:03;2.40;;;1.60;;
7410;SDS011;3747;48.628;9.058;2022-08-01T07:20:31;3.03;;;1.50;;
7410;SDS011;3747;48.628;9.058;2022-08-01T07:22:58;1.57;;;1.47;;
7410;SDS011;3747;48.628;9.058;2022-08-01T07:25:25;1.60;;;1.50;;
7410;SDS011;3747;48.628;9.058;2022-08-01T07:27:51;1.43;;;1.40;;
7410;SDS011;3747;48.628;9.058;2022-08-01T07:30:18;1.60;;;1.50;;
7410;SDS011;3747;48.628;9.058;2022-08-01T07:32:45;1.60;;;1.27;;
7410;SDS011;3747;48.628;9.058;2022-08-01T07:35:12;2.27;;;1.60;;
7410;SDS011;3747;48.628;9.058;2022-08-01T07:37:40;1.70;;;1.37;;
7410;SDS011;3747;48.628;9.058;2022-08-01T07:40:08;1.20;;;1.20;;
7410;SDS011;3747;48.628;9.058;2022-08-01T07:42:35;2.17;;;1.67;;
7410;SDS011;3747;48.628;9.058;2022-08-01T07:45:02;2.73;;;1.47;;
7410;SDS011;3747;48.628;9.058;2022-08-01T07:47:29;1.50;;;1.40;;
7410;SDS011;3747;48.628;9.058;2022-08-01T07:49:58;1.57;;;1.47;;
7410;SDS011;3747;48.628;9.058;2022-08-01T07:52:26;1.07;;;1.07;;
7410;SDS011;3747;48.628;9.058;2022-08-01T07:54:54;1.20;;;1.10;;
7410;SDS011;3747;48.628;9.058;2022-08-01T07:57:21;2.30;;;1.40;;
7410;SDS011;3747;48.628;9.058;2022-08-01T07:59:47;1.53;;;1.37;;
7410;SDS011;3747;48.628;9.058;2022-08-01T08:02:14;1.60;;;1.50;;
7410;SDS011;3747;48.628;9.058;2022-08-01T08:04:41;1.50;;;1.40;;
7410;SDS011;3747;48.628;9.058;2022-08-01T08:07:08;6.07;;;2.20;;
7410;SDS011;3747;48.628;9.058;2022-08-01T08:09:35;2.33;;;1.77;;
7410;SDS011;3747;48.628;9.058;2022-08-01T08:12:03;1.93;;;1.83;;
7410;SDS011;3747;48.628;9.058;2022-08-01T08:14:49;2.83;;;1.90;;
7410;SDS011;3747;48.628;9.058;2022-08-01T08:17:15;1.83;;;1.73;;
7410;SDS011;3747;48.628;9.058;2022-08-01T08:19:43;2.87;;;2.00;;
7410;SDS011;3747;48.628;9.058;2022-08-01T08:22:10;2.17;;;1.97;;
7410;SDS011;3747;48.628;9.058;2022-08-01T08:24:37;1.63;;;1.53;;
7410;SDS011;3747;48.628;9.058;2022-08-01T08:27:05;2.17;;;1.80;;
7410;SDS011;3747;48.628;9.058;2022-08-01T08:29:32;5.00;;;2.47;;
7410;SDS011;3747;48.628;9.058;2022-08-01T08:31:59;2.43;;;1.70;;
7410;SDS011;3747;48.628;9.058;2022-08-01T08:34:27;2.37;;;2.17;;
7410;SDS011;3747;48.628;9.058;2022-08-01T08:36:54;2.10;;;2.00;;
7410;SDS011;3747;48.628;9.058;2022-08-01T08:39:22;2.77;;;1.70;;
7410;SDS011;3747;48.628;9.058;2022-08-01T08:41:50;2.53;;;2.03;;
7410;SDS011;3747;48.628;9.058;2022-08-01T08:44:18;2.60;;;1.97;;
7410;SDS011;3747;48.628;9.058;2022-08-01T08:46:46;2.03;;;1.90;;
7410;SDS011;3747;48.628;9.058;2022-08-01T08:49:15;1.97;;;1.87;;
7410;SDS011;3747;48.628;9.058;2022-08-01T08:51:47;2.67;;;2.13;;
7410;SDS011;3747;48.628;9.058;2022-08-01T08:54:16;2.00;;;1.90;;
7410;SDS011;3747;48.628;9.058;2022-08-01T08:56:45;3.47;;;2.20;;
7410;SDS011;3747;48.628;9.058;2022-08-01T08:59:13;1.97;;;1.77;;
7410;SDS011;3747;48.628;9.058;2022-08-01T09:01:41;2.30;;;1.97;;
7410;SDS011;3747;48.628;9.058;2022-08-01T09:04:08;2.40;;;2.20;;
7410;SDS011;3747;48.628;9.058;2022-08-01T09:06:36;1.97;;;1.77;;
7410;SDS011;3747;48.628;9.058;2022-08-01T09:09:05;3.20;;;1.90;;
7410;SDS011;3747;48.628;9.058;2022-08-01T09:11:33;2.70;;;1.80;;
7410;SDS011;3747;48.628;9.058;2022-08-01T09:14:01;3.37;;;1.90;;
7410;SDS011;3747;48.628;9.058;2022-08-01T09:16:29;2.43;;;1.87;;
7410;SDS011;3747;48.628;9.058;2022-08-01T09:19:07;2.00;;;1.90;;
7410;SDS011;3747;48.628;9.058;2022-08-01T09:21:38;2.13;;;1.90;;
7410;SDS011;3747;48.628;9.058;2022-08-01T09:24:13;2.50;;;2.30;;
7410;SDS011;3747;48.628;9.058;2022-08-01T09:26:41;2.60;;;2.10;;
7410;SDS011;3747;48.628;9.058;2022-08-01T09:29:08;3.30;;;2.03;;
7410;SDS011;3747;48.628;9.058;2022-08-01T09:31:44;3.23;;;2.50;;
7410;SDS011;3747;48.628;9.058;2022-08-01T09:34:13;2.60;;;2.40;;
7410;SDS011;3747;48.628;9.058;2022-08-01T09:36:44;3.10;;;2.27;;
7410;SDS011;3747;48.628;9.058;2022-08-01T09:39:16;2.47;;;1.90;;
7410;SDS011;3747;48.628;9.058;2022-08-01T09:41:43;4.20;;;2.07;;
7410;SDS011;3747;48.628;9.058;2022-08-01T09:44:10;2.47;;;2.27;;
7410;SDS011;3747;48.628;9.058;2022-08-01T09:46:43;2.50;;;2.00;;
7410;SDS011;3747;48.628;9.058;2022-08-01T09:49:16;2.43;;;2.23;;
7410;SDS011;3747;48.628;9.058;2022-08-01T09:51:53;2.90;;;2.10;;
7410;SDS011;3747;48.628;9.058;2022-08-01T09:54:29;2.27;;;2.07;;
7410;SDS011;3747;48.628;9.058;2022-08-01T09:57:11;2.00;;;1.90;;
7410;SDS011;3747;48.628;9.058;2022-08-01T09:59:50;2.27;;;1.93;;
7410;SDS011;3747;48.628;9.058;2022-08-01T10:02:29;2.08;;;1.98;;
7410;SDS011;3747;48.628;9.058;2022-08-01T10:05:02;2.72;;;2.33;;
7410;SDS011;3747;48.628;9.058;2022-08-01T10:10:22;2.20;;;1.80;;
7410;SDS011;3747;48.628;9.058;2022-08-01T10:12:48;2.08;;;1.95;;
7410;SDS011;3747;48.628;9.058;2022-08-01T10:15:18;2.08;;;1.98;;
7410;SDS011;3747;48.628;9.058;2022-08-01T10:17:47;3.80;;;2.67;;
7410;SDS011;3747;48.628;9.058;2022-08-01T10:20:22;3.25;;;2.95;;
7410;SDS011;3747;48.628;9.058;2022-08-01T10:22:58;3.70;;;3.00;;
7410;SDS011;3747;48.628;9.058;2022-08-01T10:25:26;5.73;;;2.97;;
7410;SDS011;3747;48.628;9.058;2022-08-01T10:27:55;3.47;;;3.10;;
7410;SDS011;3747;48.628;9.058;2022-08-01T10:30:23;2.73;;;2.50;;
7410;SDS011;3747;48.628;9.058;2022-08-01T10:32:51;3.43;;;3.10;;
7410;SDS011;3747;48.628;9.058;2022-08-01T10:35:18;3.73;;;3.30;;
7410;SDS011;3747;48.628;9.058;2022-08-01T10:37:47;5.03;;;2.80;;
7410;SDS011;3747;48.628;9.058;2022-08-01T10:40:15;2.90;;;2.60;;
7410;SDS011;3747;48.628;9.058;2022-08-01T10:42:44;2.78;;;2.58;;
7410;SDS011;3747;48.628;9.058;2022-08-01T10:45:12;2.90;;;2.70;;
7410;SDS011;3747;48.628;9.058;2022-08-01T10:47:42;2.80;;;2.60;;
7410;SDS011;3747;48.628;9.058;2022-08-01T10:50:15;3.20;;;3.00;;
7410;SDS011;3747;48.628;9.058;2022-08-01T10:53:05;6.20;;;3.53;;
7410;SDS011;3747;48.628;9.058;2022-08-01T10:55:44;5.10;;;3.10;;
7410;SDS011;3747;48.628;9.058;2022-08-01T10:58:19;3.07;;;2.87;;
7410;SDS011;3747;48.628;9.058;2022-08-01T11:03:40;2.40;;;2.20;;
7410;SDS011;3747;48.628;9.058;2022-08-01T11:06:12;3.60;;;3.00;;
7410;SDS011;3747;48.628;9.058;2022-08-01T11:08:43;3.87;;;3.00;;
7410;SDS011;3747;48.628;9.058;2022-08-01T11:11:17;2.70;;;2.50;;
7410;SDS011;3747;48.628;9.058;2022-08-01T11:14:00;2.90;;;2.60;;
7410;SDS011;3747;48.628;9.058;2022-08-01T11:16:32;3.13;;;2.90;;
7410;SDS011;3747;48.628;9.058;2022-08-01T11:19:00;2.50;;;2.30;;
7410;SDS011;3747;48.628;9.058;2022-08-01T11:27:28;2.53;;;2.33;;
7410;SDS011;3747;48.628;9.058;2022-08-01T11:32:48;2.50;;;2.30;;
7410;SDS011;3747;48.628;9.058;2022-08-01T11:35:16;2.43;;;2.23;;
7410;SDS011;3747;48.628;9.058;2022-08-01T11:37:45;3.00;;;2.17;;
7410;SDS011;3747;48.628;9.058;2022-08-01T11:40:17;5.38;;;2.50;;
7410;SDS011;3747;48.628;9.058;2022-08-01T11:42:47;3.10;;;2.90;;
7410;SDS011;3747;48.628;9.058;2022-08-01T11:45:14;2.20;;;1.95;;
7410;SDS011;3747;48.628;9.058;2022-08-01T11:47:45;2.08;;;1.92;;
7410;SDS011;3747;48.628;9.058;2022-08-01T11:50:29;2.45;;;1.98;;
7410;SDS011;3747;48.628;9.058;2022-08-01T11:53:00;2.47;;;1.83;;
7410;SDS011;3747;48.628;9.058;2022-08-01T11:55:31;2.47;;;2.10;;
7410;SDS011;3747;48.628;9.058;2022-08-01T11:58:00;2.38;;;1.85;;
7410;SDS011;3747;48.628;9.058;2022-08-01T12:00:27;4.20;;;2.53;;
7410;SDS011;3747;48.628;9.058;2022-08-01T12:02:56;2.00;;;1.90;;
7410;SDS011;3747;48.628;9.058;2022-08-01T12:05:30;2.67;;;2.20;;
7410;SDS011;3747;48.628;9.058;2022-08-01T12:07:59;2.63;;;2.43;;
7410;SDS011;3747;48.628;9.058;2022-08-01T12:10:27;2.97;;;2.07;;
7410;SDS011;3747;48.628;9.058;2022-08-01T12:13:00;2.63;;;2.03;;
7410;SDS011;3747;48.628;9.058;2022-08-01T12:15:29;2.40;;;2.20;;
7410;SDS011;3747;48.628;9.058;2022-08-01T12:17:57;2.20;;;2.10;;
7410;SDS011;3747;48.628;9.058;2022-08-01T12:20:26;2.20;;;2.10;;
7410;SDS011;3747;48.628;9.058;2022-08-01T12:22:54;2.80;;;2.20;;
7410;SDS011;3747;48.628;9.058;2022-08-01T12:25:21;2.40;;;2.20;;
7410;SDS011;3747;48.628;9.058;2022-08-01T12:28:02;2.77;;;2.53;;
7410;SDS011;3747;48.628;9.058;2022-08-01T12:30:36;2.33;;;2.13;;
7410;SDS011;3747;48.628;9.058;2022-08-01T12:33:04;2.88;;;2.60;;
7410;SDS011;3747;48.628;9.058;2022-08-01T12:35:33;3.00;;;2.33;;
7410;SDS011;3747;48.628;9.058;2022-08-01T12:38:02;2.58;;;2.00;;
7410;SDS011;3747;48.628;9.058;2022-08-01T12:40:30;2.53;;;2.22;;
7410;SDS011;3747;48.628;9.058;2022-08-01T12:43:03;1.77;;;1.67;;
7410;SDS011;3747;48.628;9.058;2022-08-01T12:45:32;2.35;;;2.25;;
7410;SDS011;3747;48.628;9.058;2022-08-01T12:48:01;2.20;;;2.10;;
7410;SDS011;3747;48.628;9.058;2022-08-01T12:50:31;2.30;;;2.10;;
7410;SDS011;3747;48.628;9.058;2022-08-01T12:52:58;2.00;;;1.90;;
7410;SDS011;3747;48.628;9.058;2022-08-01T12:55:25;1.70;;;1.60;;
7410;SDS011;3747;48.628;9.058;2022-08-01T12:58:04;2.42;;;2.22;;
7410;SDS011;3747;48.628;9.058;2022-08-01T13:00:33;2.97;;;1.98;;
7410;SDS011;3747;48.628;9.058;2022-08-01T13:03:20;2.72;;;2.53;;
7410;SDS011;3747;48.628;9.058;2022-08-01T13:05:48;2.13;;;2.00;;
7410;SDS011;3747;48.628;9.058;2022-08-01T13:08:29;2.20;;;2.10;;
7410;SDS011;3747;48.628;9.058;2022-08-01T13:10:59;1.90;;;1.70;;
7410;SDS011;3747;48.628;9.058;2022-08-01T13:13:46;1.90;;;1.80;;
7410;SDS011;3747;48.628;9.058;2022-08-01T13:16:45;2.13;;;1.92;;
7410;SDS011;3747;48.628;9.058;2022-08-01T13:19:13;3.20;;;1.88;;
7410;SDS011;3747;48.628;9.058;2022-08-01T13:24:24;1.73;;;1.63;;
7410;SDS011;3747;48.628;9.058;2022-08-01T13:26:53;1.77;;;1.67;;
7410;SDS011;3747;48.628;9.058;2022-08-01T13:29:29;2.25;;;1.60;;
7410;SDS011;3747;48.628;9.058;2022-08-01T13:31:57;1.77;;;1.67;;
7410;SDS011;3747;48.628;9.058;2022-08-01T13:34:31;3.28;;;1.83;;
7410;SDS011;3747;48.628;9.058;2022-08-01T13:36:58;1.85;;;1.75;;
7410;SDS011;3747;48.628;9.058;2022-08-01T13:39:26;1.73;;;1.60;;
7410;SDS011;3747;48.628;9.058;2022-08-01T13:42:11;4.90;;;2.00;;
7410;SDS011;3747;48.628;9.058;2022-08-01T13:44:40;2.70;;;1.80;;
7410;SDS011;3747;48.628;9.058;2022-08-01T13:47:11;1.75;;;1.60;;
7410;SDS011;3747;48.628;9.058;2022-08-01T13:49:38;1.80;;;1.70;;
7410;SDS011;3747;48.628;9.058;2022-08-01T13:52:05;2.90;;;2.03;;
7410;SDS011;3747;48.628;9.058;2022-08-01T13:54:32;2.00;;;1.80;;
7410;SDS011;3747;48.628;9.058;2022-08-01T13:56:59;1.90;;;1.80;;
7410;SDS011;3747;48.628;9.058;2022-08-01T13:59:25;2.40;;;2.00;;
7410;SDS011;3747;48.628;9.058;2022-08-01T14:01:53;2.17;;;1.90;;
7410;SDS011;3747;48.628;9.058;2022-08-01T14:04:20;2.40;;;1.80;;
7410;SDS011;3747;48.628;9.058;2022-08-01T14:06:47;2.40;;;2.17;;
7410;SDS011;3747;48.628;9.058;2022-08-01T14:09:14;1.57;;;1.47;;
7410;SDS011;3747;48.628;9.058;2022-08-01T14:11:41;2.00;;;1.67;;
7410;SDS011;3747;48.628;9.058;2022-08-01T14:14:24;2.10;;;1.90;;
7410;SDS011;3747;48.628;9.058;2022-08-01T14:17:05;1.90;;;1.80;;
7410;SDS011;3747;48.628;9.058;2022-08-01T14:19:32;3.03;;;2.00;;
7410;SDS011;3747;48.628;9.058;2022-08-01T14:21:59;2.80;;;2.00;;
7410;SDS011;3747;48.628;9.058;2022-08-01T14:24:26;2.53;;;2.13;;
7410;SDS011;3747;48.628;9.058;2022-08-01T14:26:52;2.10;;;1.93;;
7410;SDS011;3747;48.628;9.058;2022-08-01T14:29:19;2.60;;;1.80;;
7410;SDS011;3747;48.628;9.058;2022-08-01T14:31:46;2.27;;;2.00;;
7410;SDS011;3747;48.628;9.058;2022-08-01T14:34:14;2.17;;;1.80;;
7410;SDS011;3747;48.628;9.058;2022-08-01T14:36:40;2.80;;;2.20;;
7410;SDS011;3747;48.628;9.058;2022-08-01T14:39:07;2.73;;;2.53;;
7410;SDS011;3747;48.628;9.058;2022-08-01T14:41:34;2.30;;;2.10;;
7410;SDS011;3747;48.628;9.058;2022-08-01T14:44:00;2.20;;;1.83;;
7410;SDS011;3747;48.628;9.058;2022-08-01T14:46:29;4.33;;;2.37;;
7410;SDS011;3747;48.628;9.058;2022-08-01T14:48:55;2.10;;;1.90;;
7410;SDS011;3747;48.628;9.058;2022-08-01T14:51:23;2.40;;;2.20;;
7410;SDS011;3747;48.628;9.058;2022-08-01T14:53:50;2.10;;;1.90;;
7410;SDS011;3747;48.628;9.058;2022-08-01T14:56:18;4.53;;;2.00;;
7410;SDS011;3747;48.628;9.058;2022-08-01T14:58:44;3.33;;;1.83;;
7410;SDS011;3747;48.628;9.058;2022-08-01T15:01:11;3.10;;;1.90;;
7410;SDS011;3747;48.628;9.058;2022-08-01T15:03:38;1.97;;;1.70;;
7410;SDS011;3747;48.628;9.058;2022-08-01T15:06:05;4.17;;;1.97;;
7410;SDS011;3747;48.628;9.058;2022-08-01T15:08:35;2.17;;;1.57;;
7410;SDS011;3747;48.628;9.058;2022-08-01T15:11:02;2.50;;;1.83;;
7410;SDS011;3747;48.628;9.058;2022-08-01T15:13:29;2.00;;;1.53;;
7410;SDS011;3747;48.628;9.058;2022-08-01T15:15:55;2.20;;;2.00;;
7410;SDS011;3747;48.628;9.058;2022-08-01T15:18:23;2.90;;;1.80;;
7410;SDS011;3747;48.628;9.058;2022-08-01T15:20:49;2.13;;;1.73;;
7410;SDS011;3747;48.628;9.058;2022-08-01T15:23:16;2.67;;;1.70;;
7410;SDS011;3747;48.628;9.058;2022-08-01T15:25:44;2.27;;;1.90;;
7410;SDS011;3747;48.628;9.058;2022-08-01T15:28:11;3.80;;;1.80;;
7410;SDS011;3747;48.628;9.058;2022-08-01T15:30:38;2.07;;;1.97;;
7410;SDS011;3747;48.628;9.058;2022-08-01T15:33:05;1.93;;;1.83;;
7410;SDS011;3747;48.628;9.058;2022-08-01T15:35:32;3.73;;;2.17;;
7410;SDS011;3747;48.628;9.058;2022-08-01T15:37:59;4.10;;;1.80;;
7410;SDS011;3747;48.628;9.058;2022-08-01T15:40:27;2.53;;;1.80;;
7410;SDS011;3747;48.628;9.058;2022-08-01T15:42:55;2.30;;;2.10;;
7410;SDS011;3747;48.628;9.058;2022-08-01T15:45:21;2.07;;;1.80;;
7410;SDS011;3747;48.628;9.058;2022-08-01T15:47:48;2.27;;;1.70;;